Fruitland
, Fruitland
Last Weather Update:10/31/2011 8:00:00 PM
Date
ETo
ETc
Rain
Irrigation
Req
Temp
Max
Temp
Min
Temp
Avg
Avg RH
Avg Wind
Avg Solar
inches
inches
incehs
inches
F
F
F
%
%
watts/m2
9/1/2011 0.23" 0.16" 0.00" 0.16" 83.8° 39.0° 61.5° 37.6% 4.7 MPH 274.7w/m2
9/2/2011 0.25" 0.17" 0.00" 0.17" 81.0° 41.5° 61.3° 33.5% 6.1 MPH 294.5w/m2
9/3/2011 0.22" 0.15" 0.00" 0.15" 81.4° 36.5° 59.3° 37.2% 3.5 MPH 291.4w/m2
9/4/2011 0.21" 0.14" 0.00" 0.14" 85.4° 33.1° 59.3° 39.3% 2.2 MPH 297.6w/m2
9/5/2011 0.15" 0.10" 0.00" 0.10" 83.9° 39.7° 60.8° 44.7% 2.2 MPH 176.7w/m2
9/6/2011 0.14" 0.10" 0.24" -0.10" 76.3° 42.6° 57.4° 73.5% 2.0 MPH 203.3w/m2
9/7/2011 0.16" 0.11" 0.00" 0.11" 76.4° 39.3° 55.2° 67.6% 1.0 MPH 245.1w/m2
9/8/2011 0.16" 0.11" 0.00" 0.11" 77.0° 36.4° 55.9° 60.1% 0.5 MPH 244.8w/m2
9/9/2011 0.16" 0.11" 0.00" 0.11" 74.3° 37.2° 55.9° 57.2% 1.9 MPH 240.5w/m2
9/10/2011 0.13" 0.09" 0.00" 0.09" 74.4° 37.3° 54.4° 59.8% 0.8 MPH 198.1w/m2
9/11/2011 0.09" 0.06" 0.03" 0.04" 71.6° 40.5° 53.5° 70.5% 0.6 MPH 148.0w/m2
9/12/2011 0.16" 0.11" 0.00" 0.11" 73.6° 38.3° 54.7° 59.6% 2.1 MPH 236.5w/m2
9/13/2011 0.15" 0.10" 0.00" 0.10" 76.6° 38.1° 56.9° 50.7% 0.6 MPH 234.4w/m2
9/14/2011 0.14" 0.09" 0.00" 0.09" 75.8° 36.8° 56.3° 56.4% 1.3 MPH 219.7w/m2
9/15/2011 0.12" 0.08" 0.00" 0.08" 72.9° 41.5° 54.1° 66.4% 0.5 MPH 189.4w/m2
9/16/2011 0.10" 0.07" 0.00" 0.07" 69.2° 33.9° 50.7° 71.4% 1.5 MPH 153.8w/m2
9/17/2011 0.14" 0.09" 0.02" 0.08" 67.9° 37.0° 52.5° 64.5% 4.6 MPH 207.7w/m2
9/18/2011 0.19" 0.12" 0.00" 0.12" 72.2° 33.6° 53.4° 53.6% 4.6 MPH 254.2w/m2
9/19/2011 0.20" 0.13" 0.00" 0.13" 75.0° 37.4° 55.8° 49.7% 5.3 MPH 252.4w/m2
9/20/2011 0.20" 0.13" 0.00" 0.13" 76.2° 34.5° 56.0° 45.3% 5.5 MPH 250.9w/m2
9/21/2011 0.20" 0.12" 0.00" 0.12" 75.9° 39.8° 57.2° 40.2% 5.4 MPH 251.4w/m2
9/22/2011 0.20" 0.13" 0.00" 0.13" 78.7° 37.1° 56.7° 40.2% 5.0 MPH 253.2w/m2
9/23/2011 0.18" 0.11" 0.00" 0.11" 82.5° 33.3° 57.2° 33.3% 3.4 MPH 249.9w/m2
9/24/2011 0.15" 0.10" 0.00" 0.10" 81.1° 37.9° 57.1° 37.0% 2.7 MPH 218.5w/m2
9/25/2011 0.20" 0.12" 0.00" 0.12" 80.7° 37.7° 59.9° 34.2% 4.4 MPH 243.4w/m2
9/26/2011 0.18" 0.11" 0.00" 0.11" 80.5° 40.7° 60.2° 39.2% 3.9 MPH 238.0w/m2
9/27/2011 0.19" 0.12" 0.00" 0.12" 81.1° 41.1° 59.8° 40.3% 4.0 MPH 237.9w/m2
9/28/2011 0.18" 0.11" 0.00" 0.11" 82.8° 45.4° 62.4° 37.0% 2.7 MPH 232.6w/m2
9/29/2011 0.15" 0.09" 0.00" 0.09" 81.9° 33.4° 58.5° 40.4% 1.4 MPH 231.7w/m2
9/30/2011 0.12" 0.07" 0.00" 0.07" 82.8° 33.2° 56.5° 45.5% 0.3 MPH 173.6w/m2
Totals: 5.06" 3.28" 0.29" 3.05" 85.4° 33.1° 57.0° 49.5% 2.8 MPH 231.5w/m2